sensor_id;sensor_type;location;lat;lon;timestamp;pressure;altitude;pressure_sealevel;temperature;humidity
47080;BME280;33067;49.296;14.470;2024-01-30T00:01:36;98590.39;;;2.84;44.46
47080;BME280;33067;49.296;14.470;2024-01-30T00:04:02;98591.56;;;2.88;44.97
47080;BME280;33067;49.296;14.470;2024-01-30T00:06:27;98589.69;;;2.70;45.27
47080;BME280;33067;49.296;14.470;2024-01-30T00:08:52;98592.42;;;2.99;44.98
47080;BME280;33067;49.296;14.470;2024-01-30T00:11:17;98597.83;;;3.16;44.82
47080;BME280;33067;49.296;14.470;2024-01-30T00:13:43;98600.57;;;3.42;44.49
47080;BME280;33067;49.296;14.470;2024-01-30T00:16:21;98597.82;;;3.56;44.40
47080;BME280;33067;49.296;14.470;2024-01-30T00:18:34;98602.79;;;3.81;44.03
47080;BME280;33067;49.296;14.470;2024-01-30T00:20:59;98604.13;;;3.85;43.64
47080;BME280;33067;49.296;14.470;2024-01-30T00:23:24;98600.52;;;3.83;43.16
47080;BME280;33067;49.296;14.470;2024-01-30T00:25:50;98604.31;;;3.93;42.01
47080;BME280;33067;49.296;14.470;2024-01-30T00:28:15;98603.66;;;3.87;41.75
47080;BME280;33067;49.296;14.470;2024-01-30T00:30:41;98602.39;;;3.99;41.36
47080;BME280;33067;49.296;14.470;2024-01-30T00:33:07;98602.40;;;3.96;41.19
47080;BME280;33067;49.296;14.470;2024-01-30T00:35:33;98600.18;;;3.90;40.91
47080;BME280;33067;49.296;14.470;2024-01-30T00:37:57;98598.35;;;3.91;40.90
47080;BME280;33067;49.296;14.470;2024-01-30T00:40:23;98598.40;;;3.86;40.89
47080;BME280;33067;49.296;14.470;2024-01-30T00:42:48;98598.06;;;3.73;41.41
47080;BME280;33067;49.296;14.470;2024-01-30T00:45:14;98596.74;;;3.79;41.31
47080;BME280;33067;49.296;14.470;2024-01-30T00:47:38;98590.68;;;3.55;41.74
47080;BME280;33067;49.296;14.470;2024-01-30T00:50:05;98590.09;;;3.68;41.70
47080;BME280;33067;49.296;14.470;2024-01-30T00:52:30;98590.07;;;3.47;41.73
47080;BME280;33067;49.296;14.470;2024-01-30T00:54:55;98589.31;;;3.69;41.42
47080;BME280;33067;49.296;14.470;2024-01-30T00:57:20;98587.31;;;3.79;41.50
47080;BME280;33067;49.296;14.470;2024-01-30T00:59:46;98586.84;;;3.48;41.62
47080;BME280;33067;49.296;14.470;2024-01-30T01:02:11;98585.16;;;3.54;41.67
47080;BME280;33067;49.296;14.470;2024-01-30T01:04:36;98583.49;;;3.55;41.45
47080;BME280;33067;49.296;14.470;2024-01-30T01:07:02;98581.02;;;3.50;41.15
47080;BME280;33067;49.296;14.470;2024-01-30T01:09:27;98581.66;;;3.50;40.97
47080;BME280;33067;49.296;14.470;2024-01-30T01:11:52;98581.07;;;3.40;40.96
47080;BME280;33067;49.296;14.470;2024-01-30T01:14:18;98582.54;;;3.18;41.18
47080;BME280;33067;49.296;14.470;2024-01-30T01:16:44;98582.69;;;3.22;41.27
47080;BME280;33067;49.296;14.470;2024-01-30T01:19:09;98572.74;;;3.22;40.96
47080;BME280;33067;49.296;14.470;2024-01-30T01:21:34;98572.19;;;3.24;41.09
47080;BME280;33067;49.296;14.470;2024-01-30T01:24:00;98569.31;;;3.46;40.23
47080;BME280;33067;49.296;14.470;2024-01-30T01:26:26;98566.90;;;3.55;40.26
47080;BME280;33067;49.296;14.470;2024-01-30T01:28:51;98565.80;;;3.44;40.47
47080;BME280;33067;49.296;14.470;2024-01-30T01:31:17;98570.10;;;3.46;40.36
47080;BME280;33067;49.296;14.470;2024-01-30T01:33:42;98578.34;;;3.33;40.59
47080;BME280;33067;49.296;14.470;2024-01-30T01:36:08;98581.23;;;3.38;40.83
47080;BME280;33067;49.296;14.470;2024-01-30T01:38:33;98584.92;;;2.79;41.01
47080;BME280;33067;49.296;14.470;2024-01-30T01:40:58;98585.24;;;2.76;40.93
47080;BME280;33067;49.296;14.470;2024-01-30T01:43:23;98586.04;;;3.38;40.94
47080;BME280;33067;49.296;14.470;2024-01-30T01:45:49;98586.72;;;3.43;40.91
47080;BME280;33067;49.296;14.470;2024-01-30T01:48:14;98583.64;;;3.30;40.54
47080;BME280;33067;49.296;14.470;2024-01-30T01:50:40;98579.85;;;3.21;40.45
47080;BME280;33067;49.296;14.470;2024-01-30T01:53:07;98576.88;;;3.09;39.65
47080;BME280;33067;49.296;14.470;2024-01-30T01:55:30;98576.44;;;2.70;40.13
47080;BME280;33067;49.296;14.470;2024-01-30T01:57:56;98575.28;;;2.91;40.51
47080;BME280;33067;49.296;14.470;2024-01-30T02:00:20;98574.30;;;3.26;40.57
47080;BME280;33067;49.296;14.470;2024-01-30T02:02:46;98572.99;;;2.99;40.67
47080;BME280;33067;49.296;14.470;2024-01-30T02:05:12;98571.95;;;3.28;40.69
47080;BME280;33067;49.296;14.470;2024-01-30T02:07:38;98570.91;;;2.94;40.73
47080;BME280;33067;49.296;14.470;2024-01-30T02:10:03;98570.15;;;3.33;40.48
47080;BME280;33067;49.296;14.470;2024-01-30T02:12:28;98573.83;;;3.35;40.39
47080;BME280;33067;49.296;14.470;2024-01-30T02:14:54;98574.69;;;3.19;40.19
47080;BME280;33067;49.296;14.470;2024-01-30T02:17:20;98575.51;;;3.41;40.04
47080;BME280;33067;49.296;14.470;2024-01-30T02:19:45;98576.04;;;2.79;40.26
47080;BME280;33067;49.296;14.470;2024-01-30T02:22:10;98577.62;;;2.92;40.37
47080;BME280;33067;49.296;14.470;2024-01-30T02:24:36;98577.29;;;3.02;40.52
47080;BME280;33067;49.296;14.470;2024-01-30T02:27:02;98578.78;;;2.68;40.66
47080;BME280;33067;49.296;14.470;2024-01-30T02:29:27;98574.59;;;2.82;40.70
47080;BME280;33067;49.296;14.470;2024-01-30T02:31:52;98573.44;;;2.87;40.65
47080;BME280;33067;49.296;14.470;2024-01-30T02:34:18;98571.43;;;3.02;40.12
47080;BME280;33067;49.296;14.470;2024-01-30T02:36:43;98573.78;;;2.98;40.17
47080;BME280;33067;49.296;14.470;2024-01-30T02:39:08;98574.32;;;2.98;40.13
47080;BME280;33067;49.296;14.470;2024-01-30T02:41:34;98573.59;;;2.83;40.29
47080;BME280;33067;49.296;14.470;2024-01-30T02:43:59;98573.44;;;2.71;39.95
47080;BME280;33067;49.296;14.470;2024-01-30T02:46:25;98572.82;;;2.87;40.30
47080;BME280;33067;49.296;14.470;2024-01-30T02:48:50;98574.74;;;2.98;40.08
47080;BME280;33067;49.296;14.470;2024-01-30T02:51:17;98576.46;;;2.81;39.87
47080;BME280;33067;49.296;14.470;2024-01-30T02:53:41;98574.97;;;3.07;39.70
47080;BME280;33067;49.296;14.470;2024-01-30T02:56:07;98570.97;;;3.11;39.58
47080;BME280;33067;49.296;14.470;2024-01-30T02:58:32;98567.15;;;2.85;39.52
47080;BME280;33067;49.296;14.470;2024-01-30T03:00:58;98562.10;;;3.00;39.48
47080;BME280;33067;49.296;14.470;2024-01-30T03:03:23;98561.94;;;2.57;39.44
47080;BME280;33067;49.296;14.470;2024-01-30T03:05:49;98564.43;;;2.55;39.74
47080;BME280;33067;49.296;14.470;2024-01-30T03:08:14;98562.79;;;2.54;40.13
47080;BME280;33067;49.296;14.470;2024-01-30T03:13:01;98554.21;;;2.92;38.96
47080;BME280;33067;49.296;14.470;2024-01-30T03:15:26;98556.54;;;2.91;39.13
47080;BME280;33067;49.296;14.470;2024-01-30T03:17:52;98556.63;;;3.10;39.23
47080;BME280;33067;49.296;14.470;2024-01-30T03:20:17;98557.82;;;2.59;39.27
47080;BME280;33067;49.296;14.470;2024-01-30T03:22:43;98559.80;;;2.90;39.67
47080;BME280;33067;49.296;14.470;2024-01-30T03:25:08;98560.27;;;2.67;40.14
47080;BME280;33067;49.296;14.470;2024-01-30T03:27:34;98558.20;;;2.91;41.17
47080;BME280;33067;49.296;14.470;2024-01-30T03:29:59;98556.11;;;2.87;40.75
47080;BME280;33067;49.296;14.470;2024-01-30T03:32:24;98558.86;;;2.83;40.28
47080;BME280;33067;49.296;14.470;2024-01-30T03:34:49;98559.84;;;2.44;39.95
47080;BME280;33067;49.296;14.470;2024-01-30T03:37:14;98559.19;;;2.67;39.63
47080;BME280;33067;49.296;14.470;2024-01-30T03:39:40;98560.13;;;2.46;39.54
47080;BME280;33067;49.296;14.470;2024-01-30T03:42:06;98559.37;;;2.71;39.49
47080;BME280;33067;49.296;14.470;2024-01-30T03:44:31;98557.91;;;2.74;39.40
47080;BME280;33067;49.296;14.470;2024-01-30T03:46:56;98555.92;;;2.61;39.40
47080;BME280;33067;49.296;14.470;2024-01-30T03:49:22;98557.27;;;2.44;39.89
47080;BME280;33067;49.296;14.470;2024-01-30T03:51:47;98557.58;;;2.48;39.74
47080;BME280;33067;49.296;14.470;2024-01-30T03:54:13;98558.90;;;2.44;39.96
47080;BME280;33067;49.296;14.470;2024-01-30T03:56:38;98560.38;;;2.22;40.21
47080;BME280;33067;49.296;14.470;2024-01-30T03:59:03;98559.83;;;2.19;40.50
47080;BME280;33067;49.296;14.470;2024-01-30T04:01:29;98558.38;;;2.36;40.40
47080;BME280;33067;49.296;14.470;2024-01-30T04:03:54;98558.13;;;2.40;40.77
47080;BME280;33067;49.296;14.470;2024-01-30T04:06:20;98558.74;;;2.45;41.20
47080;BME280;33067;49.296;14.470;2024-01-30T04:08:45;98552.84;;;2.62;41.12
47080;BME280;33067;49.296;14.470;2024-01-30T04:11:11;98554.59;;;2.58;40.89
47080;BME280;33067;49.296;14.470;2024-01-30T04:13:36;98551.39;;;2.47;40.69
47080;BME280;33067;49.296;14.470;2024-01-30T04:16:02;98549.14;;;2.62;40.60
47080;BME280;33067;49.296;14.470;2024-01-30T04:18:28;98547.08;;;2.79;40.07
47080;BME280;33067;49.296;14.470;2024-01-30T04:20:53;98543.83;;;2.50;40.09
47080;BME280;33067;49.296;14.470;2024-01-30T04:23:18;98544.99;;;2.40;40.12
47080;BME280;33067;49.296;14.470;2024-01-30T04:25:44;98549.03;;;1.91;40.81
47080;BME280;33067;49.296;14.470;2024-01-30T04:28:10;98550.97;;;2.15;40.95
47080;BME280;33067;49.296;14.470;2024-01-30T04:30:35;98552.47;;;2.30;41.38
47080;BME280;33067;49.296;14.470;2024-01-30T04:33:00;98553.64;;;2.22;42.37
47080;BME280;33067;49.296;14.470;2024-01-30T04:35:26;98554.92;;;2.31;42.41
47080;BME280;33067;49.296;14.470;2024-01-30T04:37:52;98557.57;;;2.40;42.45
47080;BME280;33067;49.296;14.470;2024-01-30T04:40:18;98553.87;;;2.33;42.66
47080;BME280;33067;49.296;14.470;2024-01-30T04:42:42;98550.71;;;2.62;42.67
47080;BME280;33067;49.296;14.470;2024-01-30T04:45:09;98556.96;;;2.50;43.47
47080;BME280;33067;49.296;14.470;2024-01-30T04:47:33;98554.29;;;2.61;42.17
47080;BME280;33067;49.296;14.470;2024-01-30T04:49:59;98557.77;;;2.45;42.36
47080;BME280;33067;49.296;14.470;2024-01-30T04:52:25;98553.74;;;2.59;42.86
47080;BME280;33067;49.296;14.470;2024-01-30T04:54:50;98555.09;;;2.37;42.31
47080;BME280;33067;49.296;14.470;2024-01-30T04:57:15;98553.84;;;2.62;42.77
47080;BME280;33067;49.296;14.470;2024-01-30T04:59:41;98559.78;;;1.78;45.70
47080;BME280;33067;49.296;14.470;2024-01-30T05:02:07;98560.00;;;2.11;45.85
47080;BME280;33067;49.296;14.470;2024-01-30T05:04:32;98555.78;;;1.65;46.52
47080;BME280;33067;49.296;14.470;2024-01-30T05:06:57;98558.43;;;1.74;47.43
47080;BME280;33067;49.296;14.470;2024-01-30T05:09:22;98554.86;;;1.24;48.62
47080;BME280;33067;49.296;14.470;2024-01-30T05:11:48;98559.32;;;1.65;47.44
47080;BME280;33067;49.296;14.470;2024-01-30T05:14:13;98555.68;;;1.36;48.24
47080;BME280;33067;49.296;14.470;2024-01-30T05:16:46;98557.72;;;1.41;48.37
47080;BME280;33067;49.296;14.470;2024-01-30T05:19:05;98563.07;;;1.50;49.18
47080;BME280;33067;49.296;14.470;2024-01-30T05:21:30;98564.30;;;1.63;49.51
47080;BME280;33067;49.296;14.470;2024-01-30T05:23:56;98562.63;;;1.44;48.92
47080;BME280;33067;49.296;14.470;2024-01-30T05:26:26;98564.05;;;1.20;49.98
47080;BME280;33067;49.296;14.470;2024-01-30T05:28:47;98563.70;;;1.75;48.39
47080;BME280;33067;49.296;14.470;2024-01-30T05:31:12;98561.17;;;2.43;47.47
47080;BME280;33067;49.296;14.470;2024-01-30T05:33:37;98563.40;;;0.26;51.20
47080;BME280;33067;49.296;14.470;2024-01-30T05:36:03;98560.48;;;1.72;49.59
47080;BME280;33067;49.296;14.470;2024-01-30T05:38:29;98561.11;;;1.28;50.91
47080;BME280;33067;49.296;14.470;2024-01-30T05:40:53;98560.59;;;1.17;50.13
47080;BME280;33067;49.296;14.470;2024-01-30T05:43:19;98563.75;;;0.85;51.35
47080;BME280;33067;49.296;14.470;2024-01-30T05:45:45;98566.63;;;0.62;52.23
47080;BME280;33067;49.296;14.470;2024-01-30T05:48:10;98570.75;;;0.75;51.67
47080;BME280;33067;49.296;14.470;2024-01-30T05:50:35;98566.01;;;0.77;51.52
47080;BME280;33067;49.296;14.470;2024-01-30T05:53:01;98562.52;;;1.26;50.43
47080;BME280;33067;49.296;14.470;2024-01-30T05:55:26;98569.16;;;1.94;48.83
47080;BME280;33067;49.296;14.470;2024-01-30T05:57:52;98564.10;;;1.59;49.52
47080;BME280;33067;49.296;14.470;2024-01-30T06:00:18;98559.72;;;1.44;50.74
47080;BME280;33067;49.296;14.470;2024-01-30T06:02:44;98566.05;;;0.61;52.31
47080;BME280;33067;49.296;14.470;2024-01-30T06:05:09;98564.46;;;1.29;51.26
47080;BME280;33067;49.296;14.470;2024-01-30T06:07:36;98566.35;;;1.61;50.61
47080;BME280;33067;49.296;14.470;2024-01-30T06:10:00;98569.76;;;0.62;51.81
47080;BME280;33067;49.296;14.470;2024-01-30T06:12:27;98567.08;;;1.24;49.89
47080;BME280;33067;49.296;14.470;2024-01-30T06:14:51;98565.45;;;0.71;51.72
47080;BME280;33067;49.296;14.470;2024-01-30T06:17:16;98563.84;;;1.32;50.55
47080;BME280;33067;49.296;14.470;2024-01-30T06:19:41;98566.70;;;1.61;49.96
47080;BME280;33067;49.296;14.470;2024-01-30T06:22:07;98569.53;;;1.86;49.18
47080;BME280;33067;49.296;14.470;2024-01-30T06:24:32;98572.17;;;1.58;50.17
47080;BME280;33067;49.296;14.470;2024-01-30T06:26:58;98571.97;;;1.45;50.92
47080;BME280;33067;49.296;14.470;2024-01-30T06:29:24;98572.13;;;2.19;49.59
47080;BME280;33067;49.296;14.470;2024-01-30T06:31:49;98575.86;;;1.71;49.52
47080;BME280;33067;49.296;14.470;2024-01-30T06:34:14;98583.35;;;2.23;49.07
47080;BME280;33067;49.296;14.470;2024-01-30T06:36:40;98581.97;;;2.35;48.11
47080;BME280;33067;49.296;14.470;2024-01-30T06:39:06;98582.93;;;2.32;48.45
47080;BME280;33067;49.296;14.470;2024-01-30T06:41:31;98578.30;;;1.65;49.68
47080;BME280;33067;49.296;14.470;2024-01-30T06:43:57;98581.79;;;2.31;48.41
47080;BME280;33067;49.296;14.470;2024-01-30T06:46:22;98578.28;;;2.39;48.03
47080;BME280;33067;49.296;14.470;2024-01-30T06:48:48;98578.88;;;2.38;47.98
47080;BME280;33067;49.296;14.470;2024-01-30T06:51:13;98581.09;;;2.12;48.62
47080;BME280;33067;49.296;14.470;2024-01-30T06:53:38;98579.87;;;1.60;49.86
47080;BME280;33067;49.296;14.470;2024-01-30T06:56:05;98577.36;;;1.73;49.44
47080;BME280;33067;49.296;14.470;2024-01-30T06:58:29;98577.63;;;1.62;49.35
47080;BME280;33067;49.296;14.470;2024-01-30T07:00:56;98579.10;;;2.07;48.50
47080;BME280;33067;49.296;14.470;2024-01-30T07:03:20;98580.65;;;2.30;48.18
47080;BME280;33067;49.296;14.470;2024-01-30T07:05:46;98580.14;;;2.14;49.12
47080;BME280;33067;49.296;14.470;2024-01-30T07:08:11;98575.18;;;1.69;49.50
47080;BME280;33067;49.296;14.470;2024-01-30T07:10:37;98583.97;;;2.08;48.58
47080;BME280;33067;49.296;14.470;2024-01-30T07:13:02;98585.85;;;2.35;48.25
47080;BME280;33067;49.296;14.470;2024-01-30T07:15:28;98589.30;;;2.39;47.97
47080;BME280;33067;49.296;14.470;2024-01-30T07:17:53;98589.02;;;2.67;47.70
47080;BME280;33067;49.296;14.470;2024-01-30T07:20:19;98588.99;;;2.10;49.06
47080;BME280;33067;49.296;14.470;2024-01-30T07:22:44;98593.30;;;2.74;47.52
47080;BME280;33067;49.296;14.470;2024-01-30T07:25:11;98591.47;;;2.38;48.00
47080;BME280;33067;49.296;14.470;2024-01-30T07:27:36;98595.10;;;2.78;47.66
47080;BME280;33067;49.296;14.470;2024-01-30T07:30:02;98594.79;;;2.40;48.41
47080;BME280;33067;49.296;14.470;2024-01-30T07:32:27;98597.81;;;2.37;48.11
47080;BME280;33067;49.296;14.470;2024-01-30T07:34:53;98597.67;;;2.43;47.87
47080;BME280;33067;49.296;14.470;2024-01-30T07:37:18;98601.27;;;2.19;48.19
47080;BME280;33067;49.296;14.470;2024-01-30T07:39:44;98598.62;;;2.63;47.44
47080;BME280;33067;49.296;14.470;2024-01-30T07:42:09;98605.34;;;2.45;47.97
47080;BME280;33067;49.296;14.470;2024-01-30T07:44:34;98605.66;;;2.41;47.65
47080;BME280;33067;49.296;14.470;2024-01-30T07:47:00;98604.33;;;1.96;49.22
47080;BME280;33067;49.296;14.470;2024-01-30T07:49:26;98606.17;;;2.16;48.41
47080;BME280;33067;49.296;14.470;2024-01-30T07:51:51;98605.13;;;2.70;47.21
47080;BME280;33067;49.296;14.470;2024-01-30T07:54:17;98605.75;;;2.17;48.88
47080;BME280;33067;49.296;14.470;2024-01-30T07:56:42;98605.26;;;2.59;48.32
47080;BME280;33067;49.296;14.470;2024-01-30T07:59:10;98606.15;;;2.32;48.65
47080;BME280;33067;49.296;14.470;2024-01-30T08:01:32;98606.83;;;2.42;48.38
47080;BME280;33067;49.296;14.470;2024-01-30T08:03:58;98604.33;;;2.98;47.56
47080;BME280;33067;49.296;14.470;2024-01-30T08:06:24;98608.23;;;2.50;47.87
47080;BME280;33067;49.296;14.470;2024-01-30T08:08:49;98606.21;;;2.21;47.98
47080;BME280;33067;49.296;14.470;2024-01-30T08:11:14;98601.10;;;1.97;48.75
47080;BME280;33067;49.296;14.470;2024-01-30T08:13:39;98603.17;;;1.90;48.78
47080;BME280;33067;49.296;14.470;2024-01-30T08:16:05;98607.50;;;2.46;48.16
47080;BME280;33067;49.296;14.470;2024-01-30T08:18:30;98608.34;;;2.37;48.17
47080;BME280;33067;49.296;14.470;2024-01-30T08:20:55;98604.98;;;2.28;48.83
47080;BME280;33067;49.296;14.470;2024-01-30T08:23:21;98606.70;;;1.74;49.75
47080;BME280;33067;49.296;14.470;2024-01-30T08:25:46;98607.03;;;1.99;49.63
47080;BME280;33067;49.296;14.470;2024-01-30T08:28:12;98606.33;;;1.99;49.59
47080;BME280;33067;49.296;14.470;2024-01-30T08:30:37;98608.27;;;1.48;49.86
47080;BME280;33067;49.296;14.470;2024-01-30T08:33:03;98606.03;;;1.40;50.62
47080;BME280;33067;49.296;14.470;2024-01-30T08:35:28;98605.15;;;1.71;49.81
47080;BME280;33067;49.296;14.470;2024-01-30T08:37:53;98610.17;;;1.59;50.32
47080;BME280;33067;49.296;14.470;2024-01-30T08:40:19;98609.58;;;1.97;49.18
47080;BME280;33067;49.296;14.470;2024-01-30T08:42:44;98610.64;;;1.89;49.67
47080;BME280;33067;49.296;14.470;2024-01-30T08:45:10;98611.75;;;2.06;49.08
47080;BME280;33067;49.296;14.470;2024-01-30T08:47:35;98612.42;;;1.67;49.74
47080;BME280;33067;49.296;14.470;2024-01-30T08:50:01;98614.35;;;2.03;49.39
47080;BME280;33067;49.296;14.470;2024-01-30T08:52:26;98614.86;;;1.88;49.25
47080;BME280;33067;49.296;14.470;2024-01-30T08:54:51;98611.96;;;1.40;50.28
47080;BME280;33067;49.296;14.470;2024-01-30T08:57:17;98613.25;;;2.02;48.70
47080;BME280;33067;49.296;14.470;2024-01-30T08:59:42;98617.24;;;2.70;47.68
47080;BME280;33067;49.296;14.470;2024-01-30T09:02:10;98615.59;;;2.15;48.30
47080;BME280;33067;49.296;14.470;2024-01-30T09:04:33;98617.49;;;1.52;50.20
47080;BME280;33067;49.296;14.470;2024-01-30T09:06:59;98618.26;;;1.59;49.34
47080;BME280;33067;49.296;14.470;2024-01-30T09:09:24;98616.48;;;1.57;49.73
47080;BME280;33067;49.296;14.470;2024-01-30T09:11:50;98614.20;;;1.63;49.88
47080;BME280;33067;49.296;14.470;2024-01-30T09:14:15;98615.44;;;1.77;49.60
47080;BME280;33067;49.296;14.470;2024-01-30T09:16:41;98619.61;;;2.30;48.45
47080;BME280;33067;49.296;14.470;2024-01-30T09:19:07;98619.37;;;2.03;48.98
47080;BME280;33067;49.296;14.470;2024-01-30T09:21:31;98617.07;;;2.30;48.16
47080;BME280;33067;49.296;14.470;2024-01-30T09:24:02;98616.69;;;2.55;47.22
47080;BME280;33067;49.296;14.470;2024-01-30T09:26:23;98611.85;;;1.44;49.65
47080;BME280;33067;49.296;14.470;2024-01-30T09:28:48;98620.27;;;2.27;48.69
47080;BME280;33067;49.296;14.470;2024-01-30T09:31:14;98621.06;;;1.78;48.76
47080;BME280;33067;49.296;14.470;2024-01-30T09:33:39;98621.55;;;2.40;48.11
47080;BME280;33067;49.296;14.470;2024-01-30T09:36:05;98623.38;;;2.71;47.42
47080;BME280;33067;49.296;14.470;2024-01-30T09:38:29;98622.62;;;3.19;46.54
47080;BME280;33067;49.296;14.470;2024-01-30T09:40:55;98622.30;;;3.08;46.58
47080;BME280;33067;49.296;14.470;2024-01-30T09:43:23;98625.39;;;2.62;46.92
47080;BME280;33067;49.296;14.470;2024-01-30T09:45:46;98621.31;;;3.04;46.23
47080;BME280;33067;49.296;14.470;2024-01-30T09:48:12;98622.40;;;3.05;46.04
47080;BME280;33067;49.296;14.470;2024-01-30T09:50:37;98622.67;;;3.22;45.60
47080;BME280;33067;49.296;14.470;2024-01-30T09:53:04;98623.29;;;3.05;45.57
47080;BME280;33067;49.296;14.470;2024-01-30T09:55:28;98623.08;;;2.96;46.05
47080;BME280;33067;49.296;14.470;2024-01-30T09:57:54;98625.16;;;3.41;46.07
47080;BME280;33067;49.296;14.470;2024-01-30T10:00:19;98625.07;;;3.54;45.64
47080;BME280;33067;49.296;14.470;2024-01-30T10:02:45;98622.41;;;3.94;44.80
47080;BME280;33067;49.296;14.470;2024-01-30T10:05:11;98621.69;;;3.91;44.60
47080;BME280;33067;49.296;14.470;2024-01-30T10:07:36;98617.90;;;3.74;44.35
47080;BME280;33067;49.296;14.470;2024-01-30T10:10:01;98622.00;;;3.53;45.27
47080;BME280;33067;49.296;14.470;2024-01-30T10:12:27;98615.77;;;3.13;45.60
47080;BME280;33067;49.296;14.470;2024-01-30T10:14:53;98619.39;;;2.50;46.91
47080;BME280;33067;49.296;14.470;2024-01-30T10:17:17;98617.61;;;2.91;46.62
47080;BME280;33067;49.296;14.470;2024-01-30T10:19:42;98617.05;;;2.54;47.18
47080;BME280;33067;49.296;14.470;2024-01-30T10:22:09;98612.15;;;2.84;46.93
47080;BME280;33067;49.296;14.470;2024-01-30T10:24:34;98606.03;;;2.29;47.98
47080;BME280;33067;49.296;14.470;2024-01-30T10:26:59;98607.70;;;2.15;48.16
47080;BME280;33067;49.296;14.470;2024-01-30T10:29:24;98602.73;;;2.51;47.53
47080;BME280;33067;49.296;14.470;2024-01-30T10:31:58;98602.35;;;2.04;48.30
47080;BME280;33067;49.296;14.470;2024-01-30T10:34:16;98594.95;;;2.69;47.31
47080;BME280;33067;49.296;14.470;2024-01-30T10:36:43;98592.21;;;2.42;47.58
47080;BME280;33067;49.296;14.470;2024-01-30T10:39:07;98588.52;;;2.92;47.25
47080;BME280;33067;49.296;14.470;2024-01-30T10:41:35;98589.27;;;1.97;48.49
47080;BME280;33067;49.296;14.470;2024-01-30T10:44:03;98587.69;;;2.12;48.33
47080;BME280;33067;49.296;14.470;2024-01-30T10:46:27;98589.01;;;2.57;47.20
47080;BME280;33067;49.296;14.470;2024-01-30T10:48:57;98587.67;;;2.32;48.04
47080;BME280;33067;49.296;14.470;2024-01-30T10:51:14;98583.38;;;2.62;47.24
47080;BME280;33067;49.296;14.470;2024-01-30T10:53:39;98577.87;;;2.11;48.76
47080;BME280;33067;49.296;14.470;2024-01-30T10:56:05;98576.24;;;2.61;47.21
47080;BME280;33067;49.296;14.470;2024-01-30T10:58:30;98570.29;;;2.71;46.87
47080;BME280;33067;49.296;14.470;2024-01-30T11:00:55;98568.21;;;2.40;47.83
47080;BME280;33067;49.296;14.470;2024-01-30T11:03:21;98564.01;;;3.55;45.70
47080;BME280;33067;49.296;14.470;2024-01-30T11:05:49;98564.59;;;3.07;46.23
47080;BME280;33067;49.296;14.470;2024-01-30T11:08:12;98563.62;;;2.87;47.30
47080;BME280;33067;49.296;14.470;2024-01-30T11:10:46;98564.25;;;2.48;46.91
47080;BME280;33067;49.296;14.470;2024-01-30T11:13:10;98562.28;;;3.17;46.74
47080;BME280;33067;49.296;14.470;2024-01-30T11:15:28;98562.38;;;2.70;46.67
47080;BME280;33067;49.296;14.470;2024-01-30T11:17:53;98559.33;;;2.68;46.55
47080;BME280;33067;49.296;14.470;2024-01-30T11:20:20;98560.61;;;2.79;46.68
47080;BME280;33067;49.296;14.470;2024-01-30T11:22:46;98563.80;;;2.38;47.52
47080;BME280;33067;49.296;14.470;2024-01-30T11:25:11;98561.02;;;2.96;46.59
47080;BME280;33067;49.296;14.470;2024-01-30T11:27:36;98561.54;;;2.36;47.48
47080;BME280;33067;49.296;14.470;2024-01-30T11:30:02;98554.18;;;2.48;47.38
47080;BME280;33067;49.296;14.470;2024-01-30T11:32:25;98547.67;;;2.86;47.03
47080;BME280;33067;49.296;14.470;2024-01-30T11:34:51;98545.23;;;2.66;46.68
47080;BME280;33067;49.296;14.470;2024-01-30T11:37:20;98541.72;;;2.60;47.45
47080;BME280;33067;49.296;14.470;2024-01-30T11:39:43;98542.14;;;2.56;47.56
47080;BME280;33067;49.296;14.470;2024-01-30T11:42:08;98542.87;;;2.28;47.58
47080;BME280;33067;49.296;14.470;2024-01-30T11:44:32;98534.86;;;2.91;46.34
47080;BME280;33067;49.296;14.470;2024-01-30T11:46:58;98533.27;;;3.42;46.46
47080;BME280;33067;49.296;14.470;2024-01-30T11:49:23;98533.14;;;3.07;46.13
47080;BME280;33067;49.296;14.470;2024-01-30T11:51:48;98532.98;;;3.88;44.57
47080;BME280;33067;49.296;14.470;2024-01-30T11:54:14;98533.28;;;2.50;46.93
47080;BME280;33067;49.296;14.470;2024-01-30T11:56:38;98535.24;;;2.79;46.39
47080;BME280;33067;49.296;14.470;2024-01-30T11:59:04;98526.91;;;3.09;45.86
47080;BME280;33067;49.296;14.470;2024-01-30T12:01:29;98525.42;;;3.02;46.32
47080;BME280;33067;49.296;14.470;2024-01-30T12:16:03;98514.38;;;3.83;44.14
47080;BME280;33067;49.296;14.470;2024-01-30T12:18:29;98511.06;;;3.50;44.64
47080;BME280;33067;49.296;14.470;2024-01-30T12:20:58;98511.69;;;3.95;44.40
47080;BME280;33067;49.296;14.470;2024-01-30T12:23:19;98504.64;;;3.64;44.78
47080;BME280;33067;49.296;14.470;2024-01-30T12:25:44;98499.85;;;4.17;43.84
47080;BME280;33067;49.296;14.470;2024-01-30T12:28:08;98500.43;;;3.97;44.61
47080;BME280;33067;49.296;14.470;2024-01-30T12:30:35;98492.48;;;4.51;43.50
47080;BME280;33067;49.296;14.470;2024-01-30T12:32:58;98489.52;;;4.79;43.10
47080;BME280;33067;49.296;14.470;2024-01-30T12:35:23;98487.07;;;4.35;43.80
47080;BME280;33067;49.296;14.470;2024-01-30T12:37:51;98482.50;;;5.11;42.66
47080;BME280;33067;49.296;14.470;2024-01-30T12:40:19;98482.87;;;4.85;43.00
47080;BME280;33067;49.296;14.470;2024-01-30T12:42:41;98478.83;;;5.05;42.23
47080;BME280;33067;49.296;14.470;2024-01-30T12:45:08;98478.68;;;5.43;42.20
47080;BME280;33067;49.296;14.470;2024-01-30T12:47:32;98479.89;;;4.91;42.51
47080;BME280;33067;49.296;14.470;2024-01-30T12:49:57;98478.63;;;5.22;41.92
47080;BME280;33067;49.296;14.470;2024-01-30T12:52:22;98479.71;;;5.02;42.62
47080;BME280;33067;49.296;14.470;2024-01-30T12:54:48;98475.45;;;4.65;42.81
47080;BME280;33067;49.296;14.470;2024-01-30T12:57:13;98474.83;;;4.66;43.00
47080;BME280;33067;49.296;14.470;2024-01-30T12:59:40;98475.29;;;5.05;42.21
47080;BME280;33067;49.296;14.470;2024-01-30T13:04:29;98474.55;;;5.11;42.31
47080;BME280;33067;49.296;14.470;2024-01-30T13:06:55;98473.69;;;5.57;41.71